Sea Voyager — V7QU2 — position and weather

sailwx.info

Track history (hours):
 
Tides and Currents Weather Stations Pressure Air Temp Water Temp Dewpoint Dewpoint Depression Visibility Wind Speed Wind Dir Waves Ship Positions

Sea Voyager

Last reported at 2014-Oct-31 08:11 UTC. Time now 2014-Nov-01 09:30 UTC.
Position N 31°22' W 118°47'.

Length 243 m; draft 10.9 m.

Type: Ship (hazmat cat A). MMSI: 538003439.

Date/timePositionNaut miles runAvg speedWind from/ knotsBaromVisibWave heightAir tempDewpointWater temp
2014-Oct-31 08:11N 31°22' W 118°47'911.9
2014-Oct-31 07:24N 31°20' W 118°36'1412.0
2014-Oct-31 06:14N 31°17' W 118°21'32 3.3
2014-Oct-30 20:33N 31°11' W 117°44'6 1.8
2014-Oct-30 17:15N 31°14' W 117°49'5 1.5
2014-Oct-30 14:13N 31°16' W 117°54'1 1.1
2014-Oct-30 13:33N 31°16' W 117°55'1 1.2
2014-Oct-30 12:33N 31°16' W 117°56'2 1.6
2014-Oct-30 11:33N 31°17' W 117°58'2 1.7
2014-Oct-30 10:33N 31°17' W 117°60'2 1.7
2014-Oct-30 09:33N 31°18' W 118°02'2 1.8
2014-Oct-30 08:33N 31°19' W 118°04'2 1.6
2014-Oct-30 07:33N 31°20' W 118°05'2 1.6
2014-Oct-30 06:17N 31°21' W 118°07'1 1.6
2014-Oct-30 05:33N 31°22' W 118°08'2 1.6
2014-Oct-30 04:33N 31°23' W 118°09'2 1.6
2014-Oct-30 03:33N 31°25' W 118°10'2 1.5
2014-Oct-30 02:33N 31°26' W 118°11'1 1.5
2014-Oct-30 01:33N 31°27' W 118°12'2 1.8
2014-Oct-30 00:33N 31°28' W 118°14'2 1.7
2014-Oct-29 23:33N 31°29' W 118°16'2 1.5
2014-Oct-29 22:33N 31°30' W 118°17'2 1.7
2014-Oct-29 21:33N 31°30' W 118°19'3 3.1
2014-Oct-29 20:33N 31°32' W 118°22'5 5.4
2014-Oct-29 19:33N 31°35' W 118°27'4 4.3
2014-Oct-29 18:33N 31°38' W 118°31'1 1.3
2014-Oct-29 17:30N 31°38' W 118°33'1 1.2
2014-Oct-29 16:33N 31°37' W 118°34'2 1.7
2014-Oct-29 15:33N 31°37' W 118°36'4 4.0
2014-Oct-29 14:31N 31°41' W 118°36'1 0.8
2014-Oct-29 13:25N 31°41' W 118°37'1 0.7
2014-Oct-29 12:25N 31°40' W 118°37'1 0.6
2014-Oct-29 11:31N 31°40' W 118°38'1 0.6
2014-Oct-29 10:31N 31°39' W 118°39'1 0.7
2014-Oct-29 09:25N 31°39' W 118°39'1 1.7
2014-Oct-29 08:33N 31°39' W 118°41'8 8.4
2014-Oct-29 07:33N 31°42' W 118°50'9 9.3
2014-Oct-29 06:33N 31°44' W 119°01'1110.6
2014-Oct-29 05:33N 31°45' W 119°13'1110.7
2014-Oct-29 04:33N 31°44' W 119°26'12 1.3
2014-Oct-28 19:33N 31°56' W 119°27'6 5.4
2014-Oct-28 18:29N 31°57' W 119°21'10 9.9
2014-Oct-28 17:30N 31°58' W 119°09'6 6.3
2014-Oct-28 16:30N 31°55' W 119°03'1 1.1
2014-Oct-28 15:17N 31°54' W 119°04'1 1.1
2014-Oct-28 14:32N 31°54' W 119°05'1 1.0
2014-Oct-28 13:32N 31°54' W 119°06'1 1.1
2014-Oct-28 12:20N 31°53' W 119°08'1 0.9
2014-Oct-28 11:23N 31°53' W 119°09'1 0.9
2014-Oct-28 10:20N 31°53' W 119°10'1 0.8
2014-Oct-28 09:32N 31°53' W 119°11'1 0.9
2014-Oct-28 08:32N 31°53' W 119°12'1 1.0
2014-Oct-28 07:23N 31°54' W 119°13'2 1.1
2014-Oct-28 05:26N 31°54' W 119°15'3 1.4
2014-Oct-28 03:23N 31°55' W 119°18'2 1.5
2014-Oct-28 02:17N 31°55' W 119°20'4 1.4
2014-Oct-27 23:29N 31°56' W 119°25'2 1.5
2014-Oct-27 22:14N 31°56' W 119°27'0 0.1
2014-Oct-27 21:33N 31°56' W 119°27'8 7.9
2014-Oct-27 20:33N 31°51' W 119°20'8 8.0
2014-Oct-27 19:33N 31°45' W 119°14'10 8.1
2014-Oct-27 18:23N 31°38' W 119°07'7 8.1
2014-Oct-27 17:33N 31°32' W 119°02'24 1.1
2014-Oct-26 20:08N 31°56' W 119°05'3 3.7
2014-Oct-26 19:21N 31°58' W 119°07'2 2.9
2014-Oct-26 18:33N 31°56' W 119°05'9 8.9
2014-Oct-26 17:33N 31°51' W 118°57'9 9.2
2014-Oct-26 16:33N 31°45' W 118°49'9 9.4
2014-Oct-26 15:33N 31°39' W 118°40'10 9.6
2014-Oct-26 14:33N 31°36' W 118°30'1010.2
2014-Oct-26 13:33N 31°33' W 118°18'18 3.5
2014-Oct-26 08:27N 31°27' W 117°59'8 2.7
2014-Oct-26 05:33N 31°32' W 118°06'4 3.0
2014-Oct-26 04:12N 31°35' W 118°10'2 2.8
2014-Oct-26 03:33N 31°36' W 118°11'3 2.9
2014-Oct-26 02:33N 31°38' W 118°13'3 2.9
2014-Oct-26 01:31N 31°40' W 118°16'3 3.0
2014-Oct-26 00:20N 31°42' W 118°20'3 3.1
2014-Oct-25 23:27N 31°43' W 118°22'3 2.9
2014-Oct-25 22:33N 31°45' W 118°25'3 2.6
2014-Oct-25 21:29N 31°46' W 118°27'3 2.7
2014-Oct-25 20:20N 31°48' W 118°31'2 2.8
2014-Oct-25 19:31N 31°49' W 118°33'3 2.8
2014-Oct-25 18:33N 31°50' W 118°36'3 2.7
2014-Oct-25 17:33N 31°52' W 118°38'3 2.8
2014-Oct-25 16:33N 31°53' W 118°41'2 2.4
2014-Oct-25 15:33N 31°55' W 118°43'4 4.0
2014-Oct-25 14:33N 31°57' W 118°47'5 3.8
2014-Oct-25 13:22N 32°00' W 118°51'1 1.4
2014-Oct-25 12:33N 32°00' W 118°52'2 1.5
2014-Oct-25 11:31N 32°01' W 118°54'2 1.8
2014-Oct-25 10:33N 32°01' W 118°56'1 1.0
2014-Oct-25 09:29N 32°01' W 118°57'1 1.3
2014-Oct-25 08:32N 32°01' W 118°59'2 1.3
2014-Oct-25 07:14N 31°60' W 119°01'5 5.8
2014-Oct-25 06:26N 31°57' W 119°05'8 9.4
2014-Oct-25 05:31N 31°55' W 119°15'13013.0
2014-Oct-24 19:33N 31°15' W 121°40'1312.7
2014-Oct-24 18:33N 31°12' W 121°55'1512.7
2014-Oct-24 17:23N 31°07' W 122°11'  
Track history (hours):
 
Tides and Currents Weather Stations Pressure Air Temp Water Temp Dewpoint Dewpoint Depression Visibility Wind Speed Wind Dir Waves Ship Positions

Sea Voyager

Last reported at 2014-Oct-31 08:11 UTC. Time now 2014-Nov-01 09:30 UTC.
Position N 31°22' W 118°47'.

Length 243 m; draft 10.9 m.

Type: Ship (hazmat cat A). MMSI: 538003439.

Date/timePositionNaut miles runAvg speedWind from/ knotsBaromVisibWave heightAir tempDewpointWater temp
2014-Oct-31 08:11N 31°22' W 118°47'911.9
2014-Oct-31 07:24N 31°20' W 118°36'1412.0
2014-Oct-31 06:14N 31°17' W 118°21'32 3.3
2014-Oct-30 20:33N 31°11' W 117°44'6 1.8
2014-Oct-30 17:15N 31°14' W 117°49'5 1.5
2014-Oct-30 14:13N 31°16' W 117°54'1 1.1
2014-Oct-30 13:33N 31°16' W 117°55'1 1.2
2014-Oct-30 12:33N 31°16' W 117°56'2 1.6
2014-Oct-30 11:33N 31°17' W 117°58'2 1.7
2014-Oct-30 10:33N 31°17' W 117°60'2 1.7
2014-Oct-30 09:33N 31°18' W 118°02'2 1.8
2014-Oct-30 08:33N 31°19' W 118°04'2 1.6
2014-Oct-30 07:33N 31°20' W 118°05'2 1.6
2014-Oct-30 06:17N 31°21' W 118°07'1 1.6
2014-Oct-30 05:33N 31°22' W 118°08'2 1.6
2014-Oct-30 04:33N 31°23' W 118°09'2 1.6
2014-Oct-30 03:33N 31°25' W 118°10'2 1.5
2014-Oct-30 02:33N 31°26' W 118°11'1 1.5
2014-Oct-30 01:33N 31°27' W 118°12'2 1.8
2014-Oct-30 00:33N 31°28' W 118°14'2 1.7
2014-Oct-29 23:33N 31°29' W 118°16'2 1.5
2014-Oct-29 22:33N 31°30' W 118°17'2 1.7
2014-Oct-29 21:33N 31°30' W 118°19'3 3.1
2014-Oct-29 20:33N 31°32' W 118°22'5 5.4
2014-Oct-29 19:33N 31°35' W 118°27'4 4.3
2014-Oct-29 18:33N 31°38' W 118°31'1 1.3
2014-Oct-29 17:30N 31°38' W 118°33'1 1.2
2014-Oct-29 16:33N 31°37' W 118°34'2 1.7
2014-Oct-29 15:33N 31°37' W 118°36'4 4.0
2014-Oct-29 14:31N 31°41' W 118°36'1 0.8
2014-Oct-29 13:25N 31°41' W 118°37'1 0.7
2014-Oct-29 12:25N 31°40' W 118°37'1 0.6
2014-Oct-29 11:31N 31°40' W 118°38'1 0.6
2014-Oct-29 10:31N 31°39' W 118°39'1 0.7
2014-Oct-29 09:25N 31°39' W 118°39'1 1.7
2014-Oct-29 08:33N 31°39' W 118°41'8 8.4
2014-Oct-29 07:33N 31°42' W 118°50'9 9.3
2014-Oct-29 06:33N 31°44' W 119°01'1110.6
2014-Oct-29 05:33N 31°45' W 119°13'1110.7
2014-Oct-29 04:33N 31°44' W 119°26'12 1.3
2014-Oct-28 19:33N 31°56' W 119°27'6 5.4
2014-Oct-28 18:29N 31°57' W 119°21'10 9.9
2014-Oct-28 17:30N 31°58' W 119°09'6 6.3
2014-Oct-28 16:30N 31°55' W 119°03'1 1.1
2014-Oct-28 15:17N 31°54' W 119°04'1 1.1
2014-Oct-28 14:32N 31°54' W 119°05'1 1.0
2014-Oct-28 13:32N 31°54' W 119°06'1 1.1
2014-Oct-28 12:20N 31°53' W 119°08'1 0.9
2014-Oct-28 11:23N 31°53' W 119°09'1 0.9
2014-Oct-28 10:20N 31°53' W 119°10'1 0.8
2014-Oct-28 09:32N 31°53' W 119°11'1 0.9
2014-Oct-28 08:32N 31°53' W 119°12'1 1.0
2014-Oct-28 07:23N 31°54' W 119°13'2 1.1
2014-Oct-28 05:26N 31°54' W 119°15'3 1.4
2014-Oct-28 03:23N 31°55' W 119°18'2 1.5
2014-Oct-28 02:17N 31°55' W 119°20'4 1.4
2014-Oct-27 23:29N 31°56' W 119°25'2 1.5
2014-Oct-27 22:14N 31°56' W 119°27'0 0.1
2014-Oct-27 21:33N 31°56' W 119°27'8 7.9
2014-Oct-27 20:33N 31°51' W 119°20'8 8.0
2014-Oct-27 19:33N 31°45' W 119°14'10 8.1
2014-Oct-27 18:23N 31°38' W 119°07'7 8.1
2014-Oct-27 17:33N 31°32' W 119°02'24 1.1
2014-Oct-26 20:08N 31°56' W 119°05'3 3.7
2014-Oct-26 19:21N 31°58' W 119°07'2 2.9
2014-Oct-26 18:33N 31°56' W 119°05'9 8.9
2014-Oct-26 17:33N 31°51' W 118°57'9 9.2
2014-Oct-26 16:33N 31°45' W 118°49'9 9.4
2014-Oct-26 15:33N 31°39' W 118°40'10 9.6
2014-Oct-26 14:33N 31°36' W 118°30'1010.2
2014-Oct-26 13:33N 31°33' W 118°18'18 3.5
2014-Oct-26 08:27N 31°27' W 117°59'8 2.7
2014-Oct-26 05:33N 31°32' W 118°06'4 3.0
2014-Oct-26 04:12N 31°35' W 118°10'2 2.8
2014-Oct-26 03:33N 31°36' W 118°11'3 2.9
2014-Oct-26 02:33N 31°38' W 118°13'3 2.9
2014-Oct-26 01:31N 31°40' W 118°16'3 3.0
2014-Oct-26 00:20N 31°42' W 118°20'3 3.1
2014-Oct-25 23:27N 31°43' W 118°22'3 2.9
2014-Oct-25 22:33N 31°45' W 118°25'3 2.6
2014-Oct-25 21:29N 31°46' W 118°27'3 2.7
2014-Oct-25 20:20N 31°48' W 118°31'2 2.8
2014-Oct-25 19:31N 31°49' W 118°33'3 2.8
2014-Oct-25 18:33N 31°50' W 118°36'3 2.7
2014-Oct-25 17:33N 31°52' W 118°38'3 2.8
2014-Oct-25 16:33N 31°53' W 118°41'2 2.4
2014-Oct-25 15:33N 31°55' W 118°43'4 4.0
2014-Oct-25 14:33N 31°57' W 118°47'5 3.8
2014-Oct-25 13:22N 32°00' W 118°51'1 1.4
2014-Oct-25 12:33N 32°00' W 118°52'2 1.5
2014-Oct-25 11:31N 32°01' W 118°54'2 1.8
2014-Oct-25 10:33N 32°01' W 118°56'1 1.0
2014-Oct-25 09:29N 32°01' W 118°57'1 1.3
2014-Oct-25 08:32N 32°01' W 118°59'2 1.3
2014-Oct-25 07:14N 31°60' W 119°01'5 5.8
2014-Oct-25 06:26N 31°57' W 119°05'8 9.4
2014-Oct-25 05:31N 31°55' W 119°15'13013.0
2014-Oct-24 19:33N 31°15' W 121°40'1312.7
2014-Oct-24 18:33N 31°12' W 121°55'1512.7
2014-Oct-24 17:23N 31°07' W 122°11'  

Dump ship's entire track history